createdAt,value
2024-01-04T00:02:21.371Z,82.39
2024-01-04T00:04:48.189Z,82.09
2024-01-04T00:07:14.715Z,81.70
2024-01-04T00:09:41.205Z,81.51
2024-01-04T00:12:07.877Z,80.01
2024-01-04T00:14:34.429Z,79.79
2024-01-04T00:17:00.957Z,80.11
2024-01-04T00:19:27.579Z,81.25
2024-01-04T00:21:54.153Z,81.27
2024-01-04T00:24:20.630Z,81.35
2024-01-04T00:26:47.166Z,81.49
2024-01-04T00:29:13.720Z,82.28
2024-01-04T00:31:40.242Z,82.71
2024-01-04T00:34:08.154Z,82.71
2024-01-04T00:36:34.804Z,83.01
2024-01-04T00:39:01.509Z,83.10
2024-01-04T00:41:28.060Z,83.26
2024-01-04T00:43:54.533Z,83.14
2024-01-04T00:46:21.016Z,83.17
2024-01-04T00:48:47.609Z,83.67
2024-01-04T00:51:14.252Z,83.65
2024-01-04T00:53:41.089Z,83.18
2024-01-04T00:56:07.855Z,82.70
2024-01-04T00:58:34.324Z,82.66
2024-01-04T01:01:00.939Z,82.49
2024-01-04T01:03:27.531Z,82.19
2024-01-04T01:05:54.196Z,82.45
2024-01-04T01:08:20.768Z,82.30
2024-01-04T01:10:47.280Z,82.16
2024-01-04T01:13:15.350Z,81.65
2024-01-04T01:15:41.873Z,81.19
2024-01-04T01:18:08.495Z,80.75
2024-01-04T01:20:35.078Z,81.07
2024-01-04T01:23:01.617Z,80.91
2024-01-04T01:25:28.143Z,80.76
2024-01-04T01:27:54.592Z,80.96
2024-01-04T01:30:21.234Z,80.81
2024-01-04T01:32:47.920Z,80.18
2024-01-04T01:35:15.208Z,80.20
2024-01-04T01:37:41.620Z,80.45
2024-01-04T01:40:08.824Z,80.61
2024-01-04T01:42:35.285Z,80.82
2024-01-04T01:45:01.958Z,80.95
2024-01-04T01:47:29.773Z,80.40
2024-01-04T01:49:57.537Z,80.59
2024-01-04T01:52:24.291Z,80.01
2024-01-04T01:54:52.278Z,80.27
2024-01-04T01:57:19.997Z,80.34
2024-01-04T01:59:46.443Z,80.54
2024-01-04T02:02:13.663Z,80.66
2024-01-04T02:04:40.984Z,81.13
2024-01-04T02:07:07.749Z,81.43
2024-01-04T02:09:34.380Z,81.49
2024-01-04T02:12:06.215Z,81.56
2024-01-04T02:14:34.128Z,81.87
2024-01-04T02:17:00.942Z,81.66
2024-01-04T02:19:28.990Z,81.29
2024-01-04T02:21:56.286Z,80.83
2024-01-04T02:24:23.138Z,80.70
2024-01-04T02:26:49.685Z,80.92
2024-01-04T02:29:16.399Z,81.67
2024-01-04T02:31:45.293Z,81.14
2024-01-04T02:34:11.905Z,81.06
2024-01-04T02:36:38.462Z,81.38
2024-01-04T02:39:05.865Z,81.24
2024-01-04T02:41:32.459Z,81.27
2024-01-04T02:43:58.961Z,81.34
2024-01-04T02:46:25.475Z,81.44
2024-01-04T02:48:52.162Z,80.95
2024-01-04T02:51:18.736Z,80.97
2024-01-04T02:53:45.282Z,81.68
2024-01-04T02:56:11.804Z,81.38
2024-01-04T02:58:38.316Z,80.96
2024-01-04T03:01:04.854Z,81.66
2024-01-04T03:03:31.529Z,81.30
2024-01-04T03:05:58.050Z,81.36
2024-01-04T03:08:24.601Z,80.78
2024-01-04T03:10:51.108Z,81.14
2024-01-04T03:13:17.608Z,81.18
2024-01-04T03:15:44.114Z,80.45
2024-01-04T03:18:10.618Z,81.37
2024-01-04T03:20:37.320Z,81.49
2024-01-04T03:23:04.194Z,81.19
2024-01-04T03:25:30.659Z,80.01
2024-01-04T03:27:57.098Z,80.51
2024-01-04T03:30:23.723Z,81.11
2024-01-04T03:32:50.379Z,82.23
2024-01-04T03:35:16.938Z,83.15
2024-01-04T03:37:43.521Z,83.82
2024-01-04T03:40:10.385Z,83.87
2024-01-04T03:42:38.150Z,83.90
2024-01-04T03:45:05.362Z,83.31
2024-01-04T03:47:32.467Z,83.85
2024-01-04T03:50:00.688Z,84.38
2024-01-04T03:52:27.394Z,84.20
2024-01-04T03:54:53.935Z,82.90
2024-01-04T03:57:20.534Z,83.57
2024-01-04T03:59:47.051Z,84.41
2024-01-04T04:02:13.806Z,84.08
2024-01-04T04:04:40.292Z,84.22
2024-01-04T04:07:06.865Z,84.79
2024-01-04T04:09:33.479Z,86.05
2024-01-04T04:12:00.113Z,86.72
2024-01-04T04:14:26.681Z,86.04
2024-01-04T04:16:53.242Z,86.57
2024-01-04T04:19:20.436Z,87.15
2024-01-04T04:21:47.052Z,87.83
2024-01-04T04:24:13.660Z,87.68
2024-01-04T04:26:40.221Z,87.82
2024-01-04T04:29:06.768Z,86.52
2024-01-04T04:31:33.320Z,87.34
2024-01-04T04:34:00.002Z,87.37
2024-01-04T04:36:26.603Z,86.85
2024-01-04T04:38:53.397Z,86.77
2024-01-04T04:41:19.999Z,86.46
2024-01-04T04:43:46.533Z,86.22
2024-01-04T04:46:13.678Z,86.11
2024-01-04T04:48:40.423Z,87.04
2024-01-04T04:51:07.184Z,87.33
2024-01-04T04:53:33.836Z,87.40
2024-01-04T04:56:00.459Z,87.08
2024-01-04T04:58:27.004Z,86.94
2024-01-04T05:00:53.568Z,86.99
2024-01-04T05:03:20.154Z,86.74
2024-01-04T05:05:46.818Z,87.17
2024-01-04T05:08:13.370Z,87.56
2024-01-04T05:10:39.926Z,87.21
2024-01-04T05:13:06.670Z,85.86
2024-01-04T05:15:33.174Z,85.98
2024-01-04T05:17:59.829Z,86.14
2024-01-04T05:20:26.408Z,86.06
2024-01-04T05:22:52.944Z,86.01
2024-01-04T05:25:19.485Z,85.74
2024-01-04T05:27:45.993Z,85.01
2024-01-04T05:30:12.705Z,85.23
2024-01-04T05:32:39.572Z,84.92
2024-01-04T05:35:07.280Z,85.34
2024-01-04T05:37:33.737Z,85.61
2024-01-04T05:40:01.477Z,85.85
2024-01-04T05:42:28.352Z,86.12
2024-01-04T05:44:54.950Z,86.37
2024-01-04T05:47:21.619Z,86.83
2024-01-04T05:49:48.245Z,87.03
2024-01-04T05:52:15.019Z,87.01
2024-01-04T05:54:41.529Z,86.93
2024-01-04T05:57:08.804Z,86.81
2024-01-04T05:59:35.425Z,86.64
2024-01-04T06:02:01.812Z,87.05
2024-01-04T06:04:28.341Z,86.91
2024-01-04T06:06:54.820Z,87.16
2024-01-04T06:09:23.012Z,87.46
2024-01-04T06:11:52.079Z,87.34
2024-01-04T06:14:19.624Z,87.07
2024-01-04T06:16:46.042Z,86.46
2024-01-04T06:19:12.722Z,85.81
2024-01-04T06:21:39.648Z,85.06
2024-01-04T06:24:06.267Z,84.86
2024-01-04T06:26:32.940Z,84.20
2024-01-04T06:28:59.451Z,83.40
2024-01-04T06:31:26.002Z,83.32
2024-01-04T06:33:52.728Z,82.24
2024-01-04T06:36:19.450Z,81.70
2024-01-04T06:38:46.005Z,79.98
2024-01-04T06:41:13.359Z,79.90
2024-01-04T06:43:39.988Z,80.13
2024-01-04T06:46:06.495Z,79.80
2024-01-04T06:48:33.197Z,79.29
2024-01-04T06:50:59.951Z,79.09
2024-01-04T06:53:27.239Z,78.73
2024-01-04T06:55:53.647Z,78.63
2024-01-04T06:58:20.144Z,78.61
2024-01-04T07:00:46.719Z,78.54
2024-01-04T07:03:13.620Z,78.61
2024-01-04T07:05:40.416Z,78.39
2024-01-04T07:08:07.162Z,78.67
2024-01-04T07:10:33.674Z,78.39
2024-01-04T07:13:00.215Z,78.48
2024-01-04T07:15:26.849Z,78.94
2024-01-04T07:17:53.648Z,79.48
2024-01-04T07:20:23.585Z,79.53
2024-01-04T07:22:53.659Z,80.03
2024-01-04T07:25:24.070Z,80.10
2024-01-04T07:27:51.116Z,80.48
2024-01-04T07:30:17.959Z,80.84
2024-01-04T07:32:45.453Z,81.22
2024-01-04T07:35:17.188Z,81.51
2024-01-04T07:37:45.373Z,79.59
2024-01-04T07:40:12.717Z,80.21
2024-01-04T07:42:39.637Z,80.12
2024-01-04T07:45:07.524Z,80.84
2024-01-04T07:47:37.967Z,81.45
2024-01-04T07:50:05.996Z,81.70
2024-01-04T07:52:32.595Z,81.95
2024-01-04T07:55:00.838Z,81.51
2024-01-04T07:57:28.428Z,80.98
2024-01-04T07:59:55.020Z,80.46
2024-01-04T08:02:21.514Z,78.80
2024-01-04T08:04:48.074Z,77.73
2024-01-04T08:07:14.788Z,77.54
2024-01-04T08:09:41.261Z,76.99
2024-01-04T08:12:10.794Z,74.52
2024-01-04T08:14:38.167Z,74.10
2024-01-04T08:17:04.777Z,74.96
2024-01-04T08:19:31.666Z,75.33
2024-01-04T08:21:58.537Z,74.03
2024-01-04T08:24:25.147Z,72.87
2024-01-04T08:26:51.729Z,72.14
2024-01-04T08:29:19.294Z,72.04
2024-01-04T08:31:45.867Z,71.93
2024-01-04T08:34:12.678Z,70.00
2024-01-04T08:36:39.957Z,70.28
2024-01-04T08:39:06.486Z,67.91
2024-01-04T08:41:33.054Z,66.11
2024-01-04T08:43:59.711Z,66.66
2024-01-04T08:46:26.216Z,65.54
2024-01-04T08:48:52.996Z,64.79
2024-01-04T08:51:19.770Z,63.97
2024-01-04T08:53:46.742Z,63.81
2024-01-04T08:56:15.226Z,64.04
2024-01-04T08:58:41.881Z,63.47
2024-01-04T09:01:08.436Z,63.67
2024-01-04T09:03:35.038Z,63.54
2024-01-04T09:06:01.640Z,62.35
2024-01-04T09:08:28.138Z,63.71
2024-01-04T09:10:54.692Z,61.44
2024-01-04T09:13:21.267Z,61.04
2024-01-04T09:15:47.750Z,58.77
2024-01-04T09:18:14.427Z,59.55
2024-01-04T09:20:41.173Z,59.16
2024-01-04T09:23:07.715Z,58.05
2024-01-04T09:25:34.261Z,58.25
2024-01-04T09:28:00.773Z,57.30
2024-01-04T09:30:30.703Z,57.14
2024-01-04T09:32:58.823Z,57.27
2024-01-04T09:35:25.484Z,57.10
2024-01-04T09:37:52.306Z,57.65
2024-01-04T09:40:20.531Z,57.49
2024-01-04T09:42:49.028Z,58.11
2024-01-04T09:45:19.706Z,57.21
2024-01-04T09:47:51.529Z,56.22
2024-01-04T09:50:19.930Z,55.25
2024-01-04T09:52:47.423Z,55.88
2024-01-04T09:55:14.201Z,55.83
2024-01-04T09:57:40.890Z,55.76
2024-01-04T10:00:09.921Z,55.97
2024-01-04T10:02:41.937Z,55.83
2024-01-04T10:05:13.734Z,56.41
2024-01-04T10:07:45.122Z,54.27
2024-01-04T10:10:17.310Z,55.54
2024-01-04T10:12:44.088Z,54.56
2024-01-04T10:15:13.008Z,53.11
2024-01-04T10:17:42.586Z,54.06
2024-01-04T10:20:09.794Z,53.56
2024-01-04T10:22:36.378Z,53.22
2024-01-04T10:25:10.394Z,52.47
2024-01-04T10:27:37.394Z,51.25
2024-01-04T10:30:07.909Z,51.17
2024-01-04T10:32:34.808Z,52.24
2024-01-04T10:35:06.197Z,51.72
2024-01-04T10:37:33.792Z,51.61
2024-01-04T10:40:04.928Z,51.63
2024-01-04T10:42:31.646Z,51.66
2024-01-04T10:44:58.426Z,51.52
2024-01-04T10:47:25.393Z,51.89
2024-01-04T10:49:59.061Z,51.73
2024-01-04T10:52:32.147Z,52.56
2024-01-04T10:55:02.014Z,52.09
2024-01-04T10:57:32.643Z,52.07
2024-01-04T11:00:01.569Z,50.80
2024-01-04T11:02:30.402Z,51.65
2024-01-04T11:04:57.542Z,51.82
2024-01-04T11:07:27.925Z,51.90
2024-01-04T11:09:55.437Z,52.20
2024-01-04T11:12:24.592Z,51.57
2024-01-04T11:14:51.247Z,52.36
2024-01-04T11:17:53.116Z,51.96
2024-01-04T11:20:51.910Z,52.20
2024-01-04T11:23:33.696Z,51.38
2024-01-04T11:26:32.091Z,51.32
2024-01-04T11:29:00.104Z,51.59
2024-01-04T11:31:26.791Z,50.70
2024-01-04T11:33:53.517Z,51.43
2024-01-04T11:36:21.142Z,50.91
2024-01-04T11:38:48.604Z,51.91
2024-01-04T11:41:15.264Z,51.31
2024-01-04T11:43:45.344Z,51.63
2024-01-04T11:46:19.921Z,52.24
2024-01-04T11:49:05.611Z,51.58
2024-01-04T11:51:33.481Z,52.23
2024-01-04T11:54:00.466Z,52.17
2024-01-04T11:56:27.940Z,52.31
2024-01-04T11:58:54.497Z,52.35
2024-01-04T12:01:23.432Z,51.78
2024-01-04T12:03:51.672Z,52.12
2024-01-04T12:06:21.200Z,51.55
2024-01-04T12:08:50.369Z,52.41
2024-01-04T12:11:21.090Z,52.74
2024-01-04T12:13:48.002Z,51.99
2024-01-04T12:16:14.573Z,52.68
2024-01-04T12:18:41.329Z,52.09
2024-01-04T12:21:15.366Z,51.89
2024-01-04T12:23:45.650Z,53.43
2024-01-04T12:26:12.741Z,53.30
2024-01-04T12:28:40.753Z,52.99
2024-01-04T12:31:09.053Z,53.12
2024-01-04T12:33:35.674Z,55.03
2024-01-04T12:36:02.549Z,57.34
2024-01-04T12:38:29.549Z,57.19
2024-01-04T12:40:56.430Z,58.21
2024-01-04T12:43:24.387Z,58.11
2024-01-04T12:46:09.573Z,59.16
2024-01-04T12:48:37.446Z,57.76
2024-01-04T12:51:16.719Z,57.02
2024-01-04T12:53:46.355Z,56.48
2024-01-04T12:56:15.369Z,57.22
2024-01-04T12:58:43.179Z,56.81
2024-01-04T13:01:09.835Z,57.25
2024-01-04T13:03:37.266Z,56.94
2024-01-04T13:06:04.372Z,56.23
2024-01-04T13:08:30.943Z,55.76
2024-01-04T13:10:57.501Z,55.45
2024-01-04T13:13:27.807Z,55.81
2024-01-04T13:15:55.326Z,55.42
2024-01-04T13:18:21.997Z,54.29
2024-01-04T13:20:48.666Z,53.90
2024-01-04T13:23:15.501Z,54.32
2024-01-04T13:25:42.268Z,54.32
2024-01-04T13:28:08.852Z,54.19
2024-01-04T13:30:35.489Z,54.82
2024-01-04T13:33:02.170Z,54.88
2024-01-04T13:35:28.692Z,55.34
2024-01-04T13:37:55.238Z,54.39
2024-01-04T13:40:21.993Z,55.10
2024-01-04T13:42:48.536Z,54.63
2024-01-04T13:45:17.250Z,54.42
2024-01-04T13:47:43.910Z,55.48
2024-01-04T13:50:11.794Z,54.92
2024-01-04T13:52:38.274Z,55.24
2024-01-04T13:55:06.125Z,55.70
2024-01-04T13:57:32.664Z,55.89
2024-01-04T13:59:59.266Z,56.09
2024-01-04T14:02:26.934Z,56.11
2024-01-04T14:04:53.424Z,56.40
2024-01-04T14:07:19.897Z,57.07
2024-01-04T14:09:46.420Z,57.06
2024-01-04T14:12:13.461Z,57.64
2024-01-04T14:14:40.290Z,57.25
2024-01-04T14:17:06.924Z,57.52
2024-01-04T14:19:33.641Z,57.84
2024-01-04T14:22:00.196Z,58.35
2024-01-04T14:24:26.787Z,58.46
2024-01-04T14:26:53.356Z,58.83
2024-01-04T14:29:19.857Z,59.03
2024-01-04T14:31:47.665Z,59.06
2024-01-04T14:34:15.061Z,58.89
2024-01-04T14:36:43.150Z,58.54
2024-01-04T14:39:11.332Z,59.45
2024-01-04T14:41:43.202Z,59.48
2024-01-04T14:44:09.811Z,59.40
2024-01-04T14:46:36.338Z,59.09
2024-01-04T14:49:04.357Z,59.33
2024-01-04T14:51:31.566Z,59.54
2024-01-04T14:53:58.091Z,59.50
2024-01-04T14:56:25.101Z,59.56
2024-01-04T14:58:51.623Z,59.69
2024-01-04T15:01:22.089Z,59.69
2024-01-04T15:03:52.582Z,59.51
2024-01-04T15:06:19.416Z,59.54
2024-01-04T15:08:46.016Z,59.48
2024-01-04T15:11:12.508Z,59.26
2024-01-04T15:13:39.020Z,59.36
2024-01-04T15:16:05.606Z,59.44
2024-01-04T15:18:32.722Z,59.38
2024-01-04T15:20:59.371Z,59.45
2024-01-04T15:23:25.935Z,59.57
2024-01-04T15:25:52.428Z,59.62
2024-01-04T15:28:20.882Z,59.50
2024-01-04T15:30:47.968Z,59.28
2024-01-04T15:33:15.269Z,59.60
2024-01-04T15:35:41.949Z,59.99
2024-01-04T15:38:10.743Z,59.60
2024-01-04T15:40:37.328Z,59.97
2024-01-04T15:43:04.782Z,59.88
2024-01-04T15:45:32.082Z,59.79
2024-01-04T15:47:58.790Z,59.87
2024-01-04T15:50:25.817Z,59.49
2024-01-04T15:52:52.415Z,59.48
2024-01-04T15:55:18.886Z,59.84
2024-01-04T15:57:46.131Z,59.14
2024-01-04T16:00:13.370Z,59.36
2024-01-04T16:02:40.511Z,59.47
2024-01-04T16:05:10.744Z,59.47
2024-01-04T16:07:38.176Z,59.54
2024-01-04T16:10:05.696Z,59.26
2024-01-04T16:12:32.255Z,59.16
2024-01-04T16:14:59.561Z,58.86
2024-01-04T16:17:26.175Z,58.87
2024-01-04T16:19:52.745Z,58.93
2024-01-04T16:22:19.275Z,59.11
2024-01-04T16:24:45.738Z,59.38
2024-01-04T16:27:12.233Z,59.15
2024-01-04T16:29:38.856Z,59.39
2024-01-04T16:32:06.566Z,59.31
2024-01-04T16:34:33.637Z,58.94
2024-01-04T16:37:01.266Z,58.91
2024-01-04T16:39:31.098Z,59.01
2024-01-04T16:41:58.609Z,59.49
2024-01-04T16:44:25.491Z,59.48
2024-01-04T16:46:53.777Z,59.17
2024-01-04T16:49:20.604Z,58.96
2024-01-04T16:51:48.391Z,58.89
2024-01-04T16:54:15.225Z,58.80
2024-01-04T16:56:41.952Z,58.86
2024-01-04T16:59:08.616Z,58.43
2024-01-04T17:01:35.288Z,58.26
2024-01-04T17:04:02.680Z,58.37
2024-01-04T17:06:30.156Z,58.00
2024-01-04T17:08:57.221Z,57.69
2024-01-04T17:11:23.947Z,57.46
2024-01-04T17:13:50.557Z,57.46
2024-01-04T17:16:20.376Z,57.36
2024-01-04T17:18:49.175Z,57.14
2024-01-04T17:21:17.114Z,56.93
2024-01-04T17:23:43.922Z,57.18
2024-01-04T17:26:11.814Z,57.44
2024-01-04T17:28:41.748Z,57.85
2024-01-04T17:31:08.789Z,57.46
2024-01-04T17:33:35.616Z,57.60
2024-01-04T17:36:16.283Z,57.57
2024-01-04T17:38:49.003Z,58.04
2024-01-04T17:41:15.632Z,57.95
2024-01-04T17:43:42.195Z,58.03
2024-01-04T17:46:08.720Z,57.82
2024-01-04T17:48:35.462Z,58.08
2024-01-04T17:51:02.573Z,58.34
2024-01-04T17:53:29.056Z,58.44
2024-01-04T17:55:55.543Z,58.43
2024-01-04T17:58:22.128Z,57.97
2024-01-04T18:00:48.908Z,57.69
2024-01-04T18:03:16.515Z,57.68
2024-01-04T18:05:43.318Z,57.55
2024-01-04T18:08:09.998Z,57.35
2024-01-04T18:10:36.672Z,57.11
2024-01-04T18:13:03.340Z,57.08
2024-01-04T18:15:30.217Z,56.96
2024-01-04T18:17:56.989Z,56.81
2024-01-04T18:20:23.634Z,56.81
2024-01-04T18:22:52.600Z,56.14
2024-01-04T18:25:19.806Z,56.09
2024-01-04T18:27:46.538Z,55.99
2024-01-04T18:30:13.373Z,56.00
2024-01-04T18:32:39.918Z,56.27
2024-01-04T18:35:06.602Z,55.85
2024-01-04T18:37:33.141Z,55.52
2024-01-04T18:39:59.703Z,55.85
2024-01-04T18:42:26.310Z,55.50
2024-01-04T18:44:52.897Z,55.74
2024-01-04T18:47:19.436Z,55.91
2024-01-04T18:49:46.252Z,56.03
2024-01-04T18:52:12.936Z,56.13
2024-01-04T18:54:40.417Z,56.54
2024-01-04T18:57:10.640Z,56.46
2024-01-04T18:59:37.541Z,56.70
2024-01-04T19:02:05.212Z,56.50
2024-01-04T19:04:32.165Z,56.81
2024-01-04T19:06:58.834Z,56.74
2024-01-04T19:09:27.482Z,56.77
2024-01-04T19:11:54.220Z,56.95
2024-01-04T19:14:20.812Z,57.14
2024-01-04T19:16:47.793Z,57.36
2024-01-04T19:19:14.551Z,57.24
2024-01-04T19:21:41.539Z,56.96
2024-01-04T19:24:08.475Z,57.16
2024-01-04T19:26:35.105Z,57.21
2024-01-04T19:29:01.673Z,57.31
2024-01-04T19:31:28.215Z,57.16
2024-01-04T19:36:23.009Z,57.22
2024-01-04T19:38:49.561Z,57.40
2024-01-04T19:41:16.144Z,57.17
2024-01-04T19:43:42.630Z,57.63
2024-01-04T19:46:10.982Z,57.51
2024-01-04T19:48:39.080Z,57.74
2024-01-04T19:51:05.964Z,57.78
2024-01-04T19:53:32.768Z,57.60
2024-01-04T19:56:01.571Z,57.88
2024-01-04T19:58:29.632Z,58.06
2024-01-04T20:00:56.439Z,58.02
2024-01-04T20:03:23.033Z,58.24
2024-01-04T20:05:49.748Z,58.57
2024-01-04T20:08:16.368Z,58.61
2024-01-04T20:10:42.909Z,58.89
2024-01-04T20:13:09.554Z,58.87
2024-01-04T20:15:36.411Z,58.90
2024-01-04T20:18:03.243Z,58.96
2024-01-04T20:20:29.853Z,59.10
2024-01-04T20:22:56.373Z,59.28
2024-01-04T20:25:22.885Z,59.34
2024-01-04T20:27:49.403Z,59.50
2024-01-04T20:30:16.065Z,59.57
2024-01-04T20:32:45.088Z,59.56
2024-01-04T20:35:11.709Z,59.62
2024-01-04T20:37:38.253Z,59.46
2024-01-04T20:40:05.446Z,59.29
2024-01-04T20:42:32.153Z,59.22
2024-01-04T20:44:58.785Z,59.38
2024-01-04T20:47:25.459Z,59.55
2024-01-04T20:49:52.488Z,59.76
2024-01-04T20:52:19.263Z,59.80
2024-01-04T20:54:45.841Z,59.79
2024-01-04T20:57:12.438Z,60.07
2024-01-04T20:59:40.965Z,60.48
2024-01-04T21:02:08.731Z,60.49
2024-01-04T21:04:36.346Z,60.19
2024-01-04T21:07:03.231Z,60.35
2024-01-04T21:09:29.844Z,60.23
2024-01-04T21:11:56.746Z,60.42
2024-01-04T21:14:23.290Z,60.66
2024-01-04T21:16:50.270Z,60.57
2024-01-04T21:19:17.814Z,60.54
2024-01-04T21:21:44.461Z,60.44
2024-01-04T21:24:14.013Z,60.44
2024-01-04T21:26:40.818Z,60.34
2024-01-04T21:29:07.566Z,59.96
2024-01-04T21:31:34.152Z,59.86
2024-01-04T21:34:00.812Z,59.72
2024-01-04T21:36:28.416Z,59.67
2024-01-04T21:38:56.113Z,59.71
2024-01-04T21:41:23.272Z,60.32
2024-01-04T21:43:49.771Z,60.49
2024-01-04T21:46:20.197Z,60.33
2024-01-04T21:48:47.012Z,60.37
2024-01-04T21:51:20.717Z,60.35
2024-01-04T21:53:49.443Z,60.52
2024-01-04T21:56:31.053Z,60.85
2024-01-04T21:58:58.134Z,60.64
2024-01-04T22:01:26.305Z,60.58
2024-01-04T22:03:53.700Z,60.59
2024-01-04T22:06:21.490Z,60.97
2024-01-04T22:08:48.248Z,61.14
2024-01-04T22:11:15.251Z,60.73
2024-01-04T22:13:41.851Z,61.11
2024-01-04T22:16:08.642Z,60.90
2024-01-04T22:18:36.659Z,60.88
2024-01-04T22:21:03.450Z,60.44
2024-01-04T22:23:29.985Z,60.49
2024-01-04T22:25:56.622Z,60.08
2024-01-04T22:28:23.423Z,60.38
2024-01-04T22:30:50.128Z,60.75
2024-01-04T22:33:17.912Z,60.69
2024-01-04T22:35:44.550Z,60.43
2024-01-04T22:38:12.336Z,60.69
2024-01-04T22:40:38.806Z,60.41
2024-01-04T22:43:05.327Z,60.48
2024-01-04T22:45:31.988Z,60.33
2024-01-04T22:47:59.555Z,60.67
2024-01-04T22:50:26.221Z,60.47
2024-01-04T22:52:52.827Z,60.21
2024-01-04T22:55:19.299Z,60.30
2024-01-04T22:57:45.798Z,60.59
2024-01-04T23:00:16.356Z,60.76
2024-01-04T23:02:42.972Z,60.64
2024-01-04T23:05:10.428Z,60.58
2024-01-04T23:07:37.006Z,60.83
2024-01-04T23:10:04.249Z,60.94
2024-01-04T23:12:31.362Z,60.73
2024-01-04T23:14:58.089Z,60.90
2024-01-04T23:17:24.763Z,61.10
2024-01-04T23:19:51.485Z,61.05
2024-01-04T23:22:24.002Z,61.16
2024-01-04T23:24:50.558Z,61.23
2024-01-04T23:27:17.067Z,61.24
2024-01-04T23:29:43.622Z,61.31
2024-01-04T23:32:11.416Z,60.89
2024-01-04T23:34:38.470Z,61.48
2024-01-04T23:37:07.040Z,61.42
2024-01-04T23:39:33.972Z,61.24
2024-01-04T23:42:00.909Z,61.20
2024-01-04T23:44:28.100Z,61.11
2024-01-04T23:46:54.552Z,61.03
2024-01-04T23:49:21.507Z,61.04
2024-01-04T23:51:48.134Z,60.94
2024-01-04T23:54:14.675Z,61.10
2024-01-04T23:56:42.259Z,61.30
2024-01-04T23:59:09.640Z,61.58
